Time;durP1;ratioP1;P1;durP2;ratioP2;P2;SDS_P1;SDS_P2;PMS_P1;PMS_P2;Temp;Humidity;BMP_temperature;BMP_pressure;BME280_temperature;BME280_humidity;BME280_pressure;Samples;Min_cycle;Max_cycle;Signal;HPM_P1;HPM_P2
2023/10/31 00:00:25;;;;;;;2.15;0.40;;;10.70;99.90;;;;;;5037640;28;20099;-34
2023/10/31 00:02:51;;;;;;;1.75;0.20;;;10.70;99.90;;;;;;5032242;28;20490;-33
2023/10/31 00:05:16;;;;;;;1.27;0.32;;;10.60;99.90;;;;;;5033543;28;20061;-33
2023/10/31 00:07:42;;;;;;;1.55;0.40;;;10.60;99.90;;;;;;5038607;28;20056;-33
2023/10/31 00:10:09;;;;;;;2.30;0.40;;;10.60;99.90;;;;;;5038147;28;20046;-34
2023/10/31 00:12:34;;;;;;;2.15;0.50;;;10.60;99.90;;;;;;5031671;28;20054;-33
2023/10/31 00:15:00;;;;;;;1.20;0.40;;;10.60;99.90;;;;;;5035536;28;20396;-33
2023/10/31 00:17:25;;;;;;;3.60;0.50;;;10.50;99.90;;;;;;5037014;28;20057;-35
2023/10/31 00:19:51;;;;;;;3.10;0.43;;;10.50;99.90;;;;;;5033906;28;20122;-33
2023/10/31 00:22:17;;;;;;;2.40;0.50;;;10.50;99.90;;;;;;5033316;28;20053;-33
2023/10/31 00:24:43;;;;;;;3.33;0.45;;;10.50;99.90;;;;;;5036181;28;20040;-33
2023/10/31 00:27:09;;;;;;;2.85;0.50;;;10.50;99.90;;;;;;5037643;28;20046;-33
2023/10/31 00:29:34;;;;;;;0.68;0.32;;;10.40;99.90;;;;;;5040982;28;20399;-33
2023/10/31 00:32:00;;;;;;;1.92;0.50;;;10.30;99.90;;;;;;5036105;28;20037;-34
2023/10/31 00:34:26;;;;;;;3.60;0.40;;;10.30;99.90;;;;;;5032637;28;20110;-33
2023/10/31 00:36:51;;;;;;;2.92;0.68;;;10.30;99.90;;;;;;5028484;28;20088;-37
2023/10/31 00:39:17;;;;;;;5.30;0.60;;;10.20;99.90;;;;;;5019164;28;20603;-34
2023/10/31 00:41:46;;;;;;;6.43;0.60;;;10.20;99.90;;;;;;5025666;28;20045;-33
2023/10/31 00:44:12;;;;;;;2.50;0.32;;;10.10;99.90;;;;;;5021806;28;20952;-33
2023/10/31 00:46:38;;;;;;;4.38;0.47;;;10.10;99.90;;;;;;5023867;28;20411;-34
2023/10/31 00:49:03;;;;;;;1.13;0.30;;;10.10;99.90;;;;;;5022421;28;20042;-33
2023/10/31 00:51:29;;;;;;;1.88;0.30;;;10.10;99.90;;;;;;5022487;28;20057;-34
2023/10/31 00:53:55;;;;;;;2.10;0.40;;;10.10;99.90;;;;;;5014623;28;20290;-34
2023/10/31 00:56:20;;;;;;;3.10;0.40;;;10.00;99.90;;;;;;5021452;28;20049;-34
2023/10/31 00:58:46;;;;;;;1.73;0.40;;;10.10;99.90;;;;;;5020504;28;20057;-33
2023/10/31 01:01:12;;;;;;;3.05;0.52;;;10.10;99.90;;;;;;5014353;28;20411;-33
2023/10/31 01:03:37;;;;;;;3.92;0.70;;;10.10;99.90;;;;;;5021117;28;20066;-34
2023/10/31 01:06:03;;;;;;;4.85;0.55;;;10.10;99.90;;;;;;5014505;28;20093;-33
2023/10/31 01:08:29;;;;;;;3.55;0.60;;;10.10;99.90;;;;;;5020404;28;20392;-34
2023/10/31 01:10:55;;;;;;;3.30;0.75;;;10.00;99.90;;;;;;5002270;28;20050;-34
2023/10/31 01:13:21;;;;;;;2.65;0.40;;;10.00;99.90;;;;;;5024148;28;20080;-33
2023/10/31 01:15:47;;;;;;;3.42;0.50;;;10.00;99.90;;;;;;5024839;28;20522;-33
2023/10/31 01:18:13;;;;;;;2.08;0.40;;;9.90;99.90;;;;;;5021039;28;20065;-34
2023/10/31 01:20:38;;;;;;;3.13;0.45;;;9.90;99.90;;;;;;5024332;28;20053;-35
2023/10/31 01:23:04;;;;;;;2.72;0.52;;;9.90;99.90;;;;;;5032522;28;20077;-34
2023/10/31 01:25:30;;;;;;;3.35;0.50;;;9.80;99.90;;;;;;5019063;28;20060;-34
2023/10/31 01:27:55;;;;;;;3.22;0.40;;;9.80;99.90;;;;;;5017972;28;20595;-36
2023/10/31 01:30:21;;;;;;;3.25;0.38;;;9.80;99.90;;;;;;5025810;28;20064;-34
2023/10/31 01:32:47;;;;;;;2.03;0.50;;;9.80;99.90;;;;;;5025556;28;20167;-34
2023/10/31 01:35:12;;;;;;;3.30;0.55;;;9.80;99.90;;;;;;5024999;28;20068;-34
2023/10/31 01:37:38;;;;;;;5.50;0.60;;;9.70;99.90;;;;;;5021464;28;20065;-34
2023/10/31 01:40:04;;;;;;;2.47;0.30;;;9.70;99.90;;;;;;5030820;28;20410;-34
2023/10/31 01:42:30;;;;;;;2.60;0.35;;;9.70;99.90;;;;;;5022207;28;20410;-34
2023/10/31 01:44:56;;;;;;;3.60;0.68;;;9.70;99.90;;;;;;5024777;28;20046;-34
2023/10/31 01:47:23;;;;;;;3.58;0.57;;;9.70;99.90;;;;;;5022460;28;20510;-34
2023/10/31 01:49:50;;;;;;;3.63;0.57;;;9.70;99.90;;;;;;5022423;28;20067;-34
2023/10/31 01:52:16;;;;;;;4.10;0.70;;;9.70;99.90;;;;;;5018794;28;20053;-34
2023/10/31 01:54:43;;;;;;;4.32;0.60;;;9.70;99.90;;;;;;5020444;28;20063;-34
2023/10/31 01:57:09;;;;;;;3.92;0.68;;;9.70;99.90;;;;;;5021147;28;20564;-36
2023/10/31 01:59:35;;;;;;;6.93;0.75;;;9.70;99.90;;;;;;5020183;28;20045;-34
2023/10/31 02:02:01;;;;;;;5.20;1.10;;;9.70;99.90;;;;;;5020287;28;20068;-34
2023/10/31 02:04:27;;;;;;;3.28;0.90;;;9.70;99.90;;;;;;5017221;28;20108;-35
2023/10/31 02:06:52;;;;;;;4.95;0.98;;;9.70;99.90;;;;;;5021354;28;20057;-34
2023/10/31 02:09:18;;;;;;;5.35;0.73;;;9.70;99.90;;;;;;5024310;28;20128;-34
2023/10/31 02:11:44;;;;;;;9.93;1.20;;;9.70;99.90;;;;;;5022343;28;20046;-34
2023/10/31 02:14:09;;;;;;;4.25;0.80;;;9.80;99.90;;;;;;5020429;28;20381;-34
2023/10/31 02:16:35;;;;;;;4.25;1.00;;;9.80;99.90;;;;;;5025503;28;20078;-35
2023/10/31 02:19:00;;;;;;;6.30;1.27;;;9.90;99.90;;;;;;5005433;28;20213;-34
2023/10/31 02:21:29;;;;;;;7.90;1.27;;;9.90;99.90;;;;;;5017318;28;20101;-35
2023/10/31 02:24:02;;;;;;;3.03;0.80;;;9.90;99.90;;;;;;5015431;28;20435;-38
2023/10/31 02:26:32;;;;;;;5.13;0.90;;;10.00;99.90;;;;;;5012899;28;20503;-34
2023/10/31 02:28:58;;;;;;;8.00;1.40;;;10.00;99.90;;;;;;5012451;28;20057;-34
2023/10/31 02:31:24;;;;;;;5.65;1.20;;;10.00;99.90;;;;;;5014857;28;20141;-35
2023/10/31 02:33:50;;;;;;;3.85;1.10;;;10.00;99.90;;;;;;5016592;28;20139;-34
2023/10/31 02:36:16;;;;;;;6.28;1.05;;;10.00;99.90;;;;;;5018966;28;20081;-34
2023/10/31 02:38:42;;;;;;;7.53;1.35;;;10.00;99.90;;;;;;5020340;28;20045;-35
2023/10/31 02:41:08;;;;;;;8.77;1.42;;;10.00;99.90;;;;;;5022095;28;20395;-34
2023/10/31 02:43:33;;;;;;;4.60;1.15;;;9.90;99.90;;;;;;5017976;28;20437;-34
2023/10/31 02:45:59;;;;;;;4.10;1.35;;;10.00;99.90;;;;;;5018918;28;20115;-34
2023/10/31 02:48:25;;;;;;;3.10;1.20;;;10.00;99.90;;;;;;5022015;28;20084;-35
2023/10/31 02:50:51;;;;;;;7.30;1.50;;;10.00;99.90;;;;;;5013472;28;20037;-34
2023/10/31 02:53:20;;;;;;;6.88;2.13;;;10.00;99.90;;;;;;5022449;28;20061;-34
2023/10/31 02:55:45;;;;;;;5.07;1.67;;;10.00;99.90;;;;;;5016381;28;20060;-34
2023/10/31 02:58:11;;;;;;;5.68;1.70;;;10.00;99.90;;;;;;5019019;28;20132;-35
2023/10/31 03:00:37;;;;;;;5.95;1.75;;;10.00;99.90;;;;;;5018559;28;20104;-34
2023/10/31 03:03:03;;;;;;;7.22;1.75;;;10.00;99.90;;;;;;5015741;28;20049;-34
2023/10/31 03:05:29;;;;;;;4.82;1.40;;;10.00;99.90;;;;;;5020276;28;20057;-34
2023/10/31 03:07:55;;;;;;;6.38;2.03;;;10.00;99.90;;;;;;5016895;28;20103;-34
2023/10/31 03:10:21;;;;;;;4.97;1.48;;;10.00;99.90;;;;;;5027195;28;20091;-35
2023/10/31 03:12:47;;;;;;;5.60;1.40;;;10.00;99.90;;;;;;5016505;28;20115;-34
2023/10/31 03:15:13;;;;;;;6.47;1.15;;;10.00;99.90;;;;;;5019452;28;20053;-34
2023/10/31 03:17:38;;;;;;;4.53;0.82;;;10.00;99.90;;;;;;5022274;28;20079;-34
2023/10/31 03:20:05;;;;;;;5.10;0.75;;;10.00;99.90;;;;;;5021159;28;20064;-37
2023/10/31 03:22:30;;;;;;;5.30;0.98;;;10.00;99.90;;;;;;5019863;28;20535;-37
2023/10/31 03:24:56;;;;;;;2.85;0.80;;;10.00;99.90;;;;;;5024044;28;20081;-34
2023/10/31 03:27:22;;;;;;;5.43;0.77;;;10.00;99.90;;;;;;5016866;28;20145;-34
2023/10/31 03:29:48;;;;;;;5.57;0.90;;;10.00;99.90;;;;;;5019753;28;20157;-34
2023/10/31 03:32:15;;;;;;;5.15;0.77;;;10.00;99.90;;;;;;5017274;28;20488;-35
2023/10/31 03:34:41;;;;;;;5.20;0.60;;;10.00;99.90;;;;;;5013726;28;20136;-33
2023/10/31 03:37:07;;;;;;;6.28;0.70;;;9.90;99.90;;;;;;5017358;28;20058;-34
2023/10/31 03:39:33;;;;;;;3.58;0.80;;;10.00;99.90;;;;;;5017377;28;20100;-34
2023/10/31 03:41:59;;;;;;;1.83;0.50;;;10.00;99.90;;;;;;5020711;28;20045;-34
2023/10/31 03:44:25;;;;;;;5.05;0.80;;;9.90;99.90;;;;;;5015684;28;20120;-34
2023/10/31 03:46:51;;;;;;;5.80;1.27;;;9.90;99.90;;;;;;5018848;28;20046;-34
2023/10/31 03:49:16;;;;;;;3.92;0.90;;;9.90;99.90;;;;;;5019047;28;20141;-34
2023/10/31 03:51:42;;;;;;;7.32;1.10;;;9.90;99.90;;;;;;5018284;28;20496;-34
2023/10/31 03:54:08;;;;;;;4.28;1.13;;;9.90;99.90;;;;;;5023384;28;20042;-34
2023/10/31 03:56:40;;;;;;;2.17;0.80;;;9.90;99.90;;;;;;5019640;28;20057;-34
2023/10/31 03:59:06;;;;;;;5.45;1.17;;;9.90;99.90;;;;;;5017729;28;20518;-34
2023/10/31 04:01:32;;;;;;;5.63;1.20;;;9.90;99.90;;;;;;5015535;28;20063;-37
2023/10/31 04:03:57;;;;;;;5.82;1.50;;;9.90;99.90;;;;;;5014314;28;20043;-34
2023/10/31 04:06:23;;;;;;;5.68;1.55;;;9.90;99.90;;;;;;5023579;28;20111;-35
2023/10/31 04:08:48;;;;;;;6.43;1.65;;;9.90;99.90;;;;;;5018923;28;20148;-35
2023/10/31 04:11:14;;;;;;;3.85;1.40;;;9.90;99.90;;;;;;5018698;28;20534;-35
2023/10/31 04:13:39;;;;;;;7.78;1.60;;;9.90;99.90;;;;;;5025046;28;20061;-35
2023/10/31 04:16:05;;;;;;;8.27;1.60;;;9.90;99.90;;;;;;5021863;28;20095;-35
2023/10/31 04:18:31;;;;;;;5.18;1.48;;;9.90;99.90;;;;;;5020902;28;20053;-36
2023/10/31 04:20:57;;;;;;;6.35;1.38;;;9.90;99.90;;;;;;5018482;28;20482;-35
2023/10/31 04:23:22;;;;;;;6.22;1.33;;;9.90;99.90;;;;;;5022721;28;20056;-40
2023/10/31 04:25:48;;;;;;;5.07;1.20;;;9.90;99.90;;;;;;5021214;28;20140;-35
2023/10/31 04:28:14;;;;;;;6.25;1.13;;;9.90;99.90;;;;;;5019556;28;20089;-35
2023/10/31 04:30:40;;;;;;;5.32;0.90;;;9.90;99.90;;;;;;5023113;28;20056;-35
2023/10/31 04:33:06;;;;;;;6.97;1.40;;;9.90;99.90;;;;;;5017864;28;20144;-35
2023/10/31 04:35:31;;;;;;;5.25;1.30;;;9.90;99.90;;;;;;5018390;28;20053;-35
2023/10/31 04:37:57;;;;;;;6.57;1.20;;;9.90;99.90;;;;;;5023246;28;20053;-35
2023/10/31 04:40:22;;;;;;;6.15;1.50;;;9.90;99.90;;;;;;5015589;28;20518;-35
2023/10/31 04:42:48;;;;;;;5.82;1.60;;;9.90;99.90;;;;;;5019072;28;20058;-35
2023/10/31 04:45:14;;;;;;;6.57;0.98;;;9.90;99.90;;;;;;5020717;28;20147;-35
2023/10/31 04:47:40;;;;;;;6.25;1.13;;;9.90;99.90;;;;;;5015452;28;20083;-35
2023/10/31 04:50:06;;;;;;;5.43;1.33;;;9.90;99.90;;;;;;5022533;28;20511;-35
2023/10/31 04:52:32;;;;;;;6.72;0.90;;;9.90;99.90;;;;;;5021330;28;20049;-35
2023/10/31 04:54:58;;;;;;;5.10;0.90;;;10.00;99.90;;;;;;5023143;28;20057;-35
2023/10/31 04:57:23;;;;;;;3.03;0.73;;;9.90;99.90;;;;;;5018038;28;20474;-35
2023/10/31 04:59:49;;;;;;;3.03;0.60;;;9.90;99.90;;;;;;5022260;28;20060;-35
2023/10/31 05:02:15;;;;;;;5.50;0.60;;;9.90;99.90;;;;;;5015840;28;20448;-35
2023/10/31 05:04:41;;;;;;;2.50;0.40;;;10.00;99.90;;;;;;5024043;28;20706;-35
2023/10/31 05:07:07;;;;;;;2.42;0.40;;;9.90;99.90;;;;;;5022526;28;20057;-35
2023/10/31 05:09:32;;;;;;;2.72;0.40;;;10.00;99.90;;;;;;5014169;28;20054;-35
2023/10/31 05:11:58;;;;;;;4.55;0.60;;;9.90;99.90;;;;;;5025149;28;20565;-35
2023/10/31 05:14:23;;;;;;;4.05;0.47;;;9.90;99.90;;;;;;5021097;28;20060;-35
2023/10/31 05:16:49;;;;;;;3.78;0.50;;;9.90;99.90;;;;;;5024029;28;20518;-35
2023/10/31 05:19:15;;;;;;;1.63;0.57;;;9.90;99.90;;;;;;5022494;28;20512;-34
2023/10/31 05:21:41;;;;;;;3.70;0.50;;;9.90;99.90;;;;;;5020554;28;20069;-35
2023/10/31 05:24:07;;;;;;;1.83;0.25;;;9.90;99.90;;;;;;5023989;28;20116;-35
2023/10/31 05:26:33;;;;;;;3.22;0.68;;;9.90;99.90;;;;;;5014189;28;20093;-35
2023/10/31 05:28:58;;;;;;;3.60;0.50;;;9.90;99.90;;;;;;5023296;28;20046;-35
2023/10/31 05:31:24;;;;;;;4.10;0.57;;;9.90;99.90;;;;;;5012027;28;20054;-37
2023/10/31 05:33:52;;;;;;;2.13;0.70;;;9.90;99.90;;;;;;5014326;28;20097;-35
2023/10/31 05:36:22;;;;;;;2.83;0.50;;;9.90;99.90;;;;;;5019901;28;20496;-40
2023/10/31 05:38:48;;;;;;;2.78;0.80;;;9.90;99.90;;;;;;5024043;28;20049;-35
2023/10/31 05:41:15;;;;;;;4.55;0.80;;;9.90;99.90;;;;;;5022181;28;20102;-35
2023/10/31 05:43:41;;;;;;;3.25;0.95;;;9.80;99.90;;;;;;4996493;28;20053;-35
2023/10/31 05:46:10;;;;;;;4.60;1.02;;;9.80;99.90;;;;;;4997999;28;20053;-35
2023/10/31 05:48:38;;;;;;;3.47;0.70;;;9.80;99.90;;;;;;5024408;28;20052;-35
2023/10/31 05:51:05;;;;;;;2.72;0.70;;;9.80;99.90;;;;;;5022283;28;20057;-35
2023/10/31 05:53:33;;;;;;;2.00;0.30;;;9.80;99.90;;;;;;5022293;28;20099;-36
2023/10/31 05:55:58;;;;;;;1.30;0.40;;;9.80;99.90;;;;;;5019944;28;20575;-34
2023/10/31 05:58:24;;;;;;;3.85;0.55;;;9.70;99.90;;;;;;5018491;28;20057;-35
2023/10/31 06:00:50;;;;;;;2.88;0.45;;;9.70;99.90;;;;;;5022375;28;20128;-35
2023/10/31 06:03:15;;;;;;;2.97;0.43;;;9.80;99.90;;;;;;5024101;28;20046;-35
2023/10/31 06:05:41;;;;;;;2.63;0.35;;;9.80;99.90;;;;;;5016461;28;20112;-35
2023/10/31 06:08:06;;;;;;;1.67;0.50;;;9.80;99.90;;;;;;5023840;28;20064;-35
2023/10/31 06:10:32;;;;;;;1.48;0.40;;;9.80;99.90;;;;;;5022514;28;20072;-35
2023/10/31 06:12:57;;;;;;;3.22;0.45;;;9.80;99.90;;;;;;5023330;28;20053;-37
2023/10/31 06:15:23;;;;;;;5.68;0.40;;;9.80;99.90;;;;;;5017344;28;20059;-35
2023/10/31 06:17:49;;;;;;;1.85;0.40;;;9.80;99.90;;;;;;5020710;28;20111;-35
2023/10/31 06:20:14;;;;;;;1.73;0.40;;;9.80;99.90;;;;;;5022883;28;20053;-35
2023/10/31 06:22:40;;;;;;;3.05;0.50;;;9.80;99.90;;;;;;5020376;28;20478;-35
2023/10/31 06:25:06;;;;;;;2.50;0.60;;;9.80;99.90;;;;;;5018061;28;20061;-34
2023/10/31 06:27:31;;;;;;;4.47;0.43;;;9.80;99.90;;;;;;5023057;28;20049;-34
2023/10/31 06:29:57;;;;;;;1.30;0.47;;;9.90;99.90;;;;;;5016777;28;20055;-35
2023/10/31 06:32:22;;;;;;;3.85;0.70;;;9.90;99.90;;;;;;5020405;28;20168;-34
2023/10/31 06:34:48;;;;;;;2.38;0.40;;;9.90;99.90;;;;;;5015287;28;20418;-34
2023/10/31 06:37:14;;;;;;;3.70;0.63;;;9.90;99.90;;;;;;5019126;28;20566;-34
2023/10/31 06:39:39;;;;;;;3.58;0.70;;;9.90;99.90;;;;;;5023372;28;20055;-34
2023/10/31 06:42:05;;;;;;;4.75;0.47;;;9.90;99.90;;;;;;5024514;28;21894;-35
2023/10/31 06:44:30;;;;;;;4.10;0.80;;;9.90;99.90;;;;;;5010046;28;20053;-34
2023/10/31 06:46:56;;;;;;;2.33;0.70;;;9.90;99.90;;;;;;5014856;28;20057;-34
2023/10/31 06:49:23;;;;;;;2.20;0.40;;;10.00;99.90;;;;;;5019350;28;20499;-34
2023/10/31 06:51:49;;;;;;;3.03;0.70;;;10.00;99.90;;;;;;5014763;28;20546;-34
2023/10/31 06:54:15;;;;;;;3.13;0.80;;;10.00;99.90;;;;;;5018817;28;20077;-34
2023/10/31 06:56:40;;;;;;;5.10;0.77;;;10.00;99.90;;;;;;5014114;28;20049;-34
2023/10/31 06:59:06;;;;;;;5.35;1.20;;;10.00;99.90;;;;;;5010698;28;20212;-34
2023/10/31 07:01:32;;;;;;;3.85;0.60;;;10.00;99.90;;;;;;5012108;28;20156;-34
2023/10/31 07:03:57;;;;;;;4.43;0.80;;;10.00;99.90;;;;;;5017369;28;20045;-34
2023/10/31 07:06:23;;;;;;;3.30;0.60;;;10.00;99.90;;;;;;5022279;28;20053;-35
2023/10/31 07:08:49;;;;;;;3.92;0.50;;;10.00;99.90;;;;;;5009523;28;20046;-35
2023/10/31 07:11:14;;;;;;;1.50;0.47;;;10.10;99.90;;;;;;5011851;28;20084;-34
2023/10/31 07:13:40;;;;;;;3.22;0.52;;;10.10;99.90;;;;;;5025730;28;20056;-35
2023/10/31 07:16:06;;;;;;;5.60;0.77;;;10.10;99.90;;;;;;5020129;28;20164;-35
2023/10/31 07:18:31;;;;;;;2.33;0.75;;;10.10;99.90;;;;;;5023276;28;20667;-35
2023/10/31 07:20:57;;;;;;;8.32;1.10;;;10.10;99.90;;;;;;5027821;28;20049;-35
2023/10/31 07:23:23;;;;;;;3.67;0.80;;;10.10;99.90;;;;;;5025451;28;20041;-35
2023/10/31 07:25:49;;;;;;;1.50;0.70;;;10.20;99.90;;;;;;5020034;28;20496;-35
2023/10/31 07:28:14;;;;;;;6.90;0.90;;;10.10;99.90;;;;;;5027185;28;20054;-35
2023/10/31 07:30:40;;;;;;;4.53;1.00;;;10.20;99.90;;;;;;5010490;28;20062;-35
2023/10/31 07:33:06;;;;;;;4.47;1.13;;;10.20;99.90;;;;;;5020102;28;20057;-35
2023/10/31 07:35:32;;;;;;;3.70;0.90;;;10.20;99.90;;;;;;5017669;28;20562;-35
2023/10/31 07:37:57;;;;;;;4.20;0.77;;;10.20;99.90;;;;;;5015244;28;20073;-35
2023/10/31 07:40:23;;;;;;;3.08;1.00;;;10.20;99.90;;;;;;5012810;28;20172;-35
2023/10/31 07:42:49;;;;;;;3.90;1.15;;;10.20;99.90;;;;;;5014417;28;20057;-35
2023/10/31 07:45:15;;;;;;;3.00;1.02;;;10.20;99.90;;;;;;5014093;28;20054;-34
2023/10/31 07:47:40;;;;;;;2.28;0.82;;;10.20;99.90;;;;;;5022923;28;20059;-34
2023/10/31 07:50:06;;;;;;;3.67;0.98;;;10.30;99.90;;;;;;5017884;28;20050;-34
2023/10/31 07:52:32;;;;;;;3.88;0.75;;;10.30;99.90;;;;;;5023089;28;20502;-34
2023/10/31 07:54:57;;;;;;;1.67;0.60;;;10.40;99.90;;;;;;5023223;28;20486;-34
2023/10/31 07:57:23;;;;;;;4.00;0.70;;;10.40;99.90;;;;;;5016625;28;20057;-34
2023/10/31 07:59:48;;;;;;;5.68;0.63;;;10.50;99.90;;;;;;5022904;28;20415;-36
2023/10/31 08:02:14;;;;;;;2.70;0.60;;;10.60;99.90;;;;;;5016910;28;20050;-34
2023/10/31 08:04:40;;;;;;;3.33;0.50;;;10.60;99.90;;;;;;5018061;28;20586;-34
2023/10/31 08:07:05;;;;;;;3.65;0.50;;;10.60;99.90;;;;;;5015376;28;20410;-34
2023/10/31 08:09:31;;;;;;;4.53;0.60;;;10.70;99.90;;;;;;5019385;28;20070;-35
2023/10/31 08:11:57;;;;;;;2.35;0.60;;;10.70;99.90;;;;;;5021099;28;20065;-34
2023/10/31 08:14:22;;;;;;;4.18;0.70;;;10.80;99.90;;;;;;5017813;28;20072;-34
2023/10/31 08:16:48;;;;;;;3.20;1.00;;;10.70;99.90;;;;;;5016481;28;20069;-34
2023/10/31 08:19:14;;;;;;;3.13;0.70;;;10.70;99.90;;;;;;5018832;28;20058;-35
2023/10/31 08:21:40;;;;;;;3.35;0.80;;;10.80;99.90;;;;;;5023883;28;20061;-34
2023/10/31 08:24:06;;;;;;;2.38;0.50;;;10.80;99.90;;;;;;5027463;28;20053;-34
2023/10/31 08:26:32;;;;;;;2.25;0.70;;;10.80;99.90;;;;;;5016143;28;20057;-34
2023/10/31 08:28:58;;;;;;;4.80;1.08;;;10.80;99.90;;;;;;5025212;28;20511;-34
2023/10/31 08:31:24;;;;;;;2.80;0.80;;;10.80;99.90;;;;;;5021085;28;20065;-34
2023/10/31 08:33:50;;;;;;;3.47;0.90;;;10.90;99.90;;;;;;5020339;28;20482;-34
2023/10/31 08:36:16;;;;;;;3.40;0.90;;;10.90;99.90;;;;;;5028394;28;20107;-35
2023/10/31 08:38:41;;;;;;;3.30;0.80;;;10.90;99.90;;;;;;5023478;28;20063;-34
2023/10/31 08:41:07;;;;;;;3.70;0.90;;;10.90;99.90;;;;;;5035037;28;20049;-34
2023/10/31 08:43:32;;;;;;;4.07;1.20;;;11.00;99.90;;;;;;5024054;28;20080;-34
2023/10/31 08:45:58;;;;;;;2.20;0.63;;;11.00;99.90;;;;;;5020788;28;20066;-34
2023/10/31 08:48:24;;;;;;;4.20;0.77;;;11.10;99.90;;;;;;5023049;28;20061;-38
2023/10/31 08:50:50;;;;;;;2.83;0.95;;;11.10;99.90;;;;;;5037813;28;20042;-35
2023/10/31 08:53:16;;;;;;;6.47;1.15;;;11.20;99.90;;;;;;5026284;28;20050;-35
2023/10/31 08:55:43;;;;;;;4.78;0.65;;;11.20;99.90;;;;;;5024680;28;20108;-35
2023/10/31 08:58:12;;;;;;;8.13;0.90;;;11.20;99.90;;;;;;5021158;28;20141;-36
2023/10/31 09:00:38;;;;;;;3.17;0.60;;;11.30;99.90;;;;;;5024766;28;20506;-35
2023/10/31 09:03:04;;;;;;;3.38;0.60;;;11.40;99.90;;;;;;5011881;28;20046;-36
2023/10/31 09:05:29;;;;;;;2.03;0.50;;;11.50;99.90;;;;;;5023817;28;20065;-35
2023/10/31 09:07:55;;;;;;;4.07;0.60;;;11.50;99.90;;;;;;5022052;28;20503;-35
2023/10/31 09:10:21;;;;;;;3.75;0.30;;;11.50;99.90;;;;;;5013054;28;20605;-35
2023/10/31 09:12:46;;;;;;;3.83;0.35;;;11.60;99.90;;;;;;5024514;28;20443;-35
2023/10/31 09:15:13;;;;;;;3.58;0.25;;;11.70;99.90;;;;;;5014369;28;20073;-35
2023/10/31 09:17:38;;;;;;;3.80;0.30;;;11.70;99.90;;;;;;5017027;28;20074;-35
2023/10/31 09:20:05;;;;;;;2.33;0.30;;;11.70;99.90;;;;;;5023240;28;20077;-44
2023/10/31 09:22:30;;;;;;;3.15;0.40;;;11.80;99.90;;;;;;5021086;28;20090;-35
2023/10/31 09:24:56;;;;;;;3.65;0.20;;;11.80;99.90;;;;;;5020120;28;20050;-35
2023/10/31 09:27:21;;;;;;;2.33;0.60;;;11.90;99.90;;;;;;5028184;28;20137;-34
2023/10/31 09:29:47;;;;;;;2.97;0.22;;;11.90;99.90;;;;;;5026704;28;20446;-34
2023/10/31 09:32:15;;;;;;;1.52;0.20;;;11.90;99.90;;;;;;5017690;28;20068;-35
2023/10/31 09:34:41;;;;;;;3.88;0.30;;;12.00;99.90;;;;;;5021168;28;20042;-35
2023/10/31 09:37:06;;;;;;;2.47;0.28;;;12.00;99.90;;;;;;5016571;28;20119;-34
2023/10/31 09:39:32;;;;;;;4.97;0.60;;;12.00;99.90;;;;;;5020575;28;20053;-34
2023/10/31 09:41:58;;;;;;;2.70;0.43;;;12.10;99.90;;;;;;5023914;28;20058;-34
2023/10/31 09:44:23;;;;;;;5.72;0.45;;;12.10;99.90;;;;;;5016106;28;20453;-34
2023/10/31 09:46:51;;;;;;;3.30;0.82;;;12.20;99.90;;;;;;5022059;28;20411;-34
2023/10/31 09:49:18;;;;;;;4.28;0.35;;;12.20;99.90;;;;;;5019172;28;20052;-34
2023/10/31 09:51:44;;;;;;;3.55;0.20;;;12.30;99.90;;;;;;5026187;28;20107;-34
2023/10/31 09:54:13;;;;;;;0.70;0.10;;;12.30;99.90;;;;;;5025802;28;20136;-46
2023/10/31 09:56:38;;;;;;;1.35;0.20;;;12.40;99.90;;;;;;5030952;28;20096;-34
2023/10/31 09:59:05;;;;;;;2.58;0.43;;;12.40;99.90;;;;;;5020125;28;20124;-34
2023/10/31 10:01:30;;;;;;;5.82;0.20;;;12.40;99.90;;;;;;5003674;28;20053;-34
2023/10/31 10:03:56;;;;;;;2.13;0.10;;;12.50;99.90;;;;;;5020306;28;20049;-35
2023/10/31 10:06:23;;;;;;;1.63;0.20;;;12.50;99.90;;;;;;5021878;28;20057;-35
2023/10/31 10:08:49;;;;;;;1.88;0.13;;;12.60;99.90;;;;;;5019809;28;20045;-35
2023/10/31 10:11:15;;;;;;;1.67;0.10;;;12.70;99.90;;;;;;5021130;28;20075;-34
2023/10/31 10:13:41;;;;;;;2.63;0.20;;;12.80;99.90;;;;;;5026707;28;20053;-37
2023/10/31 10:16:08;;;;;;;1.50;0.10;;;12.90;99.90;;;;;;5025456;28;22396;-35
2023/10/31 10:18:37;;;;;;;2.22;0.20;;;13.00;99.90;;;;;;5016312;28;20045;-35
2023/10/31 10:21:04;;;;;;;2.65;0.10;;;13.00;99.90;;;;;;5023917;28;20084;-46
2023/10/31 10:23:30;;;;;;;2.45;0.20;;;13.10;99.90;;;;;;5023976;28;20053;-35
2023/10/31 10:25:58;;;;;;;4.45;0.30;;;13.00;99.90;;;;;;5016755;28;20115;-35
2023/10/31 10:28:27;;;;;;;1.73;0.20;;;12.90;99.90;;;;;;5020461;28;20060;-34
2023/10/31 10:30:54;;;;;;;2.10;0.47;;;12.90;99.90;;;;;;5017715;28;20058;-35
2023/10/31 10:33:21;;;;;;;2.25;0.10;;;12.90;99.90;;;;;;5022988;28;20092;-35
2023/10/31 10:35:46;;;;;;;2.08;0.20;;;13.00;99.90;;;;;;5021804;28;20054;-35
2023/10/31 10:38:16;;;;;;;3.42;0.13;;;13.10;99.90;;;;;;5015829;28;20053;-34
2023/10/31 10:40:44;;;;;;;3.67;0.30;;;13.10;99.90;;;;;;5023103;28;20050;-35
2023/10/31 10:43:23;;;;;;;2.78;0.13;;;13.20;99.90;;;;;;5021066;28;20779;-35
2023/10/31 10:45:56;;;;;;;0.88;0.10;;;13.30;99.90;;;;;;5021596;28;20042;-35
2023/10/31 10:48:23;;;;;;;3.90;0.28;;;13.30;99.90;;;;;;5007282;28;20065;-34
2023/10/31 10:50:57;;;;;;;2.78;0.30;;;13.40;99.90;;;;;;4995935;28;20061;-35
2023/10/31 10:53:26;;;;;;;2.53;0.20;;;13.40;99.90;;;;;;5017587;28;20064;-38
2023/10/31 10:55:57;;;;;;;2.35;0.32;;;13.40;99.90;;;;;;5020573;28;20053;-34
2023/10/31 10:58:31;;;;;;;1.85;0.32;;;13.60;99.90;;;;;;5013491;28;20072;-35
2023/10/31 11:00:58;;;;;;;1.92;0.10;;;13.70;99.90;;;;;;5011578;28;20053;-35
2023/10/31 11:03:26;;;;;;;1.63;0.10;;;13.90;99.90;;;;;;5014372;28;20136;-56
2023/10/31 11:05:51;;;;;;;1.08;0.10;;;14.00;99.90;;;;;;5016974;28;20434;-34
2023/10/31 11:08:19;;;;;;;1.90;0.20;;;14.00;99.90;;;;;;5020728;28;20059;-35
2023/10/31 11:10:46;;;;;;;1.42;0.05;;;14.10;99.90;;;;;;5015552;28;20119;-37
2023/10/31 11:13:12;;;;;;;0.52;0.10;;;14.10;99.90;;;;;;5011414;28;20396;-35
2023/10/31 11:15:38;;;;;;;2.08;0.20;;;14.20;99.90;;;;;;5021635;28;20049;-34
2023/10/31 11:18:05;;;;;;;1.20;0.20;;;14.30;99.90;;;;;;5022952;28;20500;-35
2023/10/31 11:20:31;;;;;;;1.40;0.20;;;14.20;99.90;;;;;;5024928;28;20041;-35
2023/10/31 11:23:04;;;;;;;1.25;0.10;;;14.40;99.90;;;;;;5025320;28;20056;-35
2023/10/31 11:25:31;;;;;;;0.88;0.13;;;14.50;99.90;;;;;;5026242;28;20063;-35
2023/10/31 11:28:10;;;;;;;4.28;0.50;;;14.80;99.90;;;;;;5028731;28;20053;-35
2023/10/31 11:30:36;;;;;;;1.15;0.13;;;14.90;99.90;;;;;;5015217;28;20138;-35
2023/10/31 11:33:03;;;;;;;1.35;0.20;;;15.20;99.90;;;;;;5009292;28;20156;-35
2023/10/31 11:35:36;;;;;;;3.33;0.20;;;15.30;99.90;;;;;;5011269;28;20056;-35
2023/10/31 11:38:03;;;;;;;2.65;0.13;;;15.40;99.90;;;;;;5015117;28;20500;-35
2023/10/31 11:40:29;;;;;;;2.42;0.20;;;15.30;99.90;;;;;;5023369;28;20052;-35
2023/10/31 11:43:02;;;;;;;1.52;0.10;;;15.10;99.90;;;;;;5024156;28;20049;-35
2023/10/31 11:45:33;;;;;;;1.67;0.17;;;14.90;99.90;;;;;;5015533;28;20058;-35
2023/10/31 11:47:59;;;;;;;1.52;0.20;;;14.90;99.90;;;;;;5015439;28;20046;-35
2023/10/31 11:50:25;;;;;;;2.65;0.13;;;15.00;99.90;;;;;;5021638;28;20514;-49
2023/10/31 11:53:09;;;;;;;1.77;0.05;;;15.10;99.90;;;;;;5023024;28;20037;-34
2023/10/31 11:55:39;;;;;;;1.98;0.30;;;14.90;99.90;;;;;;5011901;28;20046;-40
2023/10/31 11:58:22;;;;;;;1.40;0.17;;;14.70;99.90;;;;;;5015433;28;20496;-35
2023/10/31 12:00:52;;;;;;;2.28;0.10;;;14.60;99.90;;;;;;5017424;28;20108;-36
2023/10/31 12:03:19;;;;;;;1.25;0.10;;;14.50;99.90;;;;;;5015629;28;20108;-34
2023/10/31 12:05:56;;;;;;;1.38;0.30;;;14.70;99.90;;;;;;5010932;28;20145;-34
2023/10/31 12:08:42;;;;;;;1.25;0.10;;;15.10;99.90;;;;;;5017715;28;20057;-35
2023/10/31 12:11:12;;;;;;;0.98;0.10;;;15.70;99.90;;;;;;5018766;28;20045;-39
2023/10/31 12:13:53;;;;;;;1.58;0.10;;;16.20;99.90;;;;;;5028168;28;20053;-34
2023/10/31 12:16:22;;;;;;;0.98;0.20;;;16.00;99.90;;;;;;5014325;28;20056;-36
2023/10/31 12:18:57;;;;;;;0.25;0.05;;;15.70;99.90;;;;;;5015655;28;20132;-35
2023/10/31 12:21:38;;;;;;;3.20;0.10;;;15.60;99.90;;;;;;5024985;28;20057;-36
2023/10/31 12:24:08;;;;;;;4.03;0.10;;;15.90;99.90;;;;;;5014814;28;20184;-39
2023/10/31 12:26:35;;;;;;;3.70;0.30;;;16.00;99.90;;;;;;5023870;28;20053;-36
2023/10/31 12:29:20;;;;;;;0.95;0.05;;;16.20;99.90;;;;;;5015794;28;20050;-35
2023/10/31 12:31:53;;;;;;;0.85;0.10;;;16.80;99.90;;;;;;5021744;28;20050;-39
2023/10/31 12:34:23;;;;;;;1.05;0.10;;;17.70;99.90;;;;;;5024056;28;21285;-46
2023/10/31 12:36:51;;;;;;;1.10;0.00;;;17.90;99.90;;;;;;5016125;28;20116;-34
2023/10/31 12:39:23;;;;;;;2.47;0.10;;;17.40;99.90;;;;;;5017574;28;20465;-35
2023/10/31 12:41:49;;;;;;;0.70;0.10;;;16.50;99.90;;;;;;5017140;28;20404;-36
2023/10/31 12:44:22;;;;;;;0.85;0.10;;;15.90;99.90;;;;;;5018500;28;20060;-37
2023/10/31 12:46:48;;;;;;;0.90;0.10;;;15.40;99.90;;;;;;5017810;28;20504;-39